This is the latest recevied weather packets stored in our database for station/object DH8TOM-4. If no packets are shown the sender has not sent any weather packets the latest 10 day(s).
| Time | Temp. | Humidity | Pressure | Rain* | Wind** | Luminosity | Snow |
|---|---|---|---|---|---|---|---|
| 1787988317 | 23.89° C | 66% | 1013.8 hPa | - | - | - | - |
| 1787988015 | 23.89° C | 66% | 1013.8 hPa | - | - | - | - |
| 1787987413 | 23.33° C | 69% | 1013.8 hPa | - | - | - | - |
| 1787986811 | 22.22° C | 72% | 1013.8 hPa | - | - | - | - |
| 1787986209 | 21.11° C | 74% | 1013.7 hPa | - | - | - | - |
| 1787985608 | 20.56° C | 75% | 1013.5 hPa | - | - | - | - |
| 1787985005 | 20.56° C | 77% | 1013.4 hPa | - | - | - | - |
| 1787984403 | 18.33° C | 83% | 1013.3 hPa | - | - | - | - |
| 1787983801 | 17.22° C | 85% | 1013.2 hPa | - | - | - | - |
| 1787983501 | 17.22° C | 85% | 1013.2 hPa | - | - | - | - |
| 1787983199 | 16.67° C | 87% | 1013.1 hPa | - | - | - | - |
| 1787982898 | 16.67° C | 87% | 1013.1 hPa | - | - | - | - |
| 1787982598 | 16.11° C | 89% | 1013 hPa | - | - | - | - |
| 1787982296 | 16.11° C | 89% | 1013 hPa | - | - | - | - |
| 1787981996 | 15.56° C | 90% | 1013 hPa | - | - | - | - |
| 1787981694 | 15.56° C | 90% | 1013 hPa | - | - | - | - |
| 1787981393 | 15° C | 90% | 1013 hPa | - | - | - | - |
| 1787981092 | 15° C | 91% | 1012.9 hPa | - | - | - | - |
| 1787980792 | 15° C | 91% | 1012.9 hPa | - | - | - | - |
| 1787980491 | 15° C | 91% | 1012.9 hPa | - | - | - | - |
| 1787980189 | 15° C | 90% | 1012.9 hPa | - | - | - | - |
| 1787979888 | 15° C | 90% | 1012.9 hPa | - | - | - | - |
| 1787979588 | 15° C | 90% | 1012.7 hPa | - | - | - | - |
| 1787979286 | 15° C | 90% | 1012.7 hPa | - | - | - | - |
| 1787978985 | 15° C | 90% | 1012.7 hPa | - | - | - | - |
* Rain since midnight (hover to see other rain measurements)
** Current wind speed in m/s (hover to see current wind gust speed)